METAR Data

Data at: 0928 UTC 25 Mar 2019

METAR for:KJFK (New York/Kennedy Int, NY, US)
Text:KJFK 250851Z 30007KT 10SM BKN080 OVC095 12/M01 A3000 RMK AO2 SLP159 T01171006 58013
Temperature: 11.7°C ( 53°F)
Dewpoint: -0.6°C ( 31°F) [RH = 43%]
Pressure (altimeter):30.00 inches Hg (1016.0 mb) [Sea level pressure: 1015.9 mb]
Winds:from the WNW (300 degrees) at 8 MPH (7 knots; 3.6 m/s)
Visibility:10 or more sm (16+ km)
Ceiling:8000 feet AGL
Clouds: broken clouds at 8000 feet AGL, overcast cloud deck at 9500 feet AGL